sensor_id;sensor_type;location;lat;lon;timestamp;P1;durP1;ratioP1;P2;durP2;ratioP2
34541;SDS011;20784;51.332;12.410;2023-05-07T00:00:51;15.43;;;10.98;;
34541;SDS011;20784;51.332;12.410;2023-05-07T00:03:16;14.48;;;10.57;;
34541;SDS011;20784;51.332;12.410;2023-05-07T00:05:45;15.43;;;10.20;;
34541;SDS011;20784;51.332;12.410;2023-05-07T00:08:13;13.90;;;9.90;;
34541;SDS011;20784;51.332;12.410;2023-05-07T00:10:40;13.98;;;9.15;;
34541;SDS011;20784;51.332;12.410;2023-05-07T00:13:06;15.15;;;9.02;;
34541;SDS011;20784;51.332;12.410;2023-05-07T00:15:32;13.65;;;9.32;;
34541;SDS011;20784;51.332;12.410;2023-05-07T00:17:57;14.73;;;8.90;;
34541;SDS011;20784;51.332;12.410;2023-05-07T00:20:24;14.88;;;9.05;;
34541;SDS011;20784;51.332;12.410;2023-05-07T00:22:50;13.68;;;9.70;;
34541;SDS011;20784;51.332;12.410;2023-05-07T00:25:15;11.50;;;8.73;;
34541;SDS011;20784;51.332;12.410;2023-05-07T00:27:41;13.45;;;8.27;;
34541;SDS011;20784;51.332;12.410;2023-05-07T00:30:07;10.38;;;8.93;;
34541;SDS011;20784;51.332;12.410;2023-05-07T00:32:33;11.95;;;8.68;;
34541;SDS011;20784;51.332;12.410;2023-05-07T00:34:58;12.63;;;8.82;;
34541;SDS011;20784;51.332;12.410;2023-05-07T00:37:24;10.70;;;9.32;;
34541;SDS011;20784;51.332;12.410;2023-05-07T00:39:50;11.13;;;9.02;;
34541;SDS011;20784;51.332;12.410;2023-05-07T00:42:15;13.02;;;9.38;;
34541;SDS011;20784;51.332;12.410;2023-05-07T00:44:41;12.30;;;9.15;;
34541;SDS011;20784;51.332;12.410;2023-05-07T00:47:06;11.05;;;9.02;;
34541;SDS011;20784;51.332;12.410;2023-05-07T00:49:37;13.82;;;9.27;;
34541;SDS011;20784;51.332;12.410;2023-05-07T00:52:05;12.60;;;10.07;;
34541;SDS011;20784;51.332;12.410;2023-05-07T00:54:32;13.20;;;10.40;;
34541;SDS011;20784;51.332;12.410;2023-05-07T00:57:06;51.47;;;33.92;;
34541;SDS011;20784;51.332;12.410;2023-05-07T00:59:33;17.20;;;13.00;;
34541;SDS011;20784;51.332;12.410;2023-05-07T01:02:00;13.95;;;10.88;;
34541;SDS011;20784;51.332;12.410;2023-05-07T01:04:25;17.48;;;11.35;;
34541;SDS011;20784;51.332;12.410;2023-05-07T01:06:51;16.85;;;11.55;;
34541;SDS011;20784;51.332;12.410;2023-05-07T01:09:25;18.30;;;11.40;;
34541;SDS011;20784;51.332;12.410;2023-05-07T01:11:55;18.60;;;11.90;;
34541;SDS011;20784;51.332;12.410;2023-05-07T01:14:24;15.95;;;12.55;;
34541;SDS011;20784;51.332;12.410;2023-05-07T01:16:50;15.93;;;11.52;;
34541;SDS011;20784;51.332;12.410;2023-05-07T01:19:19;16.27;;;11.88;;
34541;SDS011;20784;51.332;12.410;2023-05-07T01:24:14;15.18;;;11.93;;
34541;SDS011;20784;51.332;12.410;2023-05-07T01:26:40;19.80;;;12.93;;
34541;SDS011;20784;51.332;12.410;2023-05-07T01:29:06;17.63;;;12.77;;
34541;SDS011;20784;51.332;12.410;2023-05-07T01:31:33;22.70;;;13.60;;
34541;SDS011;20784;51.332;12.410;2023-05-07T01:34:01;19.73;;;13.32;;
34541;SDS011;20784;51.332;12.410;2023-05-07T01:36:28;19.63;;;13.95;;
34541;SDS011;20784;51.332;12.410;2023-05-07T01:38:55;18.92;;;13.50;;
34541;SDS011;20784;51.332;12.410;2023-05-07T01:41:22;21.30;;;13.35;;
34541;SDS011;20784;51.332;12.410;2023-05-07T01:43:48;19.83;;;13.20;;
34541;SDS011;20784;51.332;12.410;2023-05-07T01:46:15;18.17;;;13.63;;
34541;SDS011;20784;51.332;12.410;2023-05-07T01:48:45;17.05;;;13.60;;
34541;SDS011;20784;51.332;12.410;2023-05-07T01:51:11;18.23;;;14.25;;
34541;SDS011;20784;51.332;12.410;2023-05-07T01:53:37;21.42;;;14.93;;
34541;SDS011;20784;51.332;12.410;2023-05-07T01:56:04;20.55;;;16.00;;
34541;SDS011;20784;51.332;12.410;2023-05-07T01:58:30;20.67;;;16.38;;
34541;SDS011;20784;51.332;12.410;2023-05-07T02:00:56;24.63;;;17.27;;
34541;SDS011;20784;51.332;12.410;2023-05-07T02:03:21;22.38;;;17.30;;
34541;SDS011;20784;51.332;12.410;2023-05-07T02:05:47;24.60;;;16.83;;
34541;SDS011;20784;51.332;12.410;2023-05-07T02:08:12;22.92;;;16.98;;
34541;SDS011;20784;51.332;12.410;2023-05-07T02:10:38;23.20;;;16.80;;
34541;SDS011;20784;51.332;12.410;2023-05-07T02:13:04;27.67;;;17.83;;
34541;SDS011;20784;51.332;12.410;2023-05-07T02:15:29;23.13;;;16.42;;
34541;SDS011;20784;51.332;12.410;2023-05-07T02:18:02;22.50;;;16.55;;
34541;SDS011;20784;51.332;12.410;2023-05-07T02:20:29;23.80;;;17.05;;
34541;SDS011;20784;51.332;12.410;2023-05-07T02:22:55;21.45;;;16.73;;
34541;SDS011;20784;51.332;12.410;2023-05-07T02:25:20;21.88;;;16.48;;
34541;SDS011;20784;51.332;12.410;2023-05-07T02:27:49;22.10;;;17.25;;
34541;SDS011;20784;51.332;12.410;2023-05-07T02:30:15;21.10;;;16.58;;
34541;SDS011;20784;51.332;12.410;2023-05-07T02:32:41;22.20;;;17.33;;
34541;SDS011;20784;51.332;12.410;2023-05-07T02:35:06;24.35;;;17.35;;
34541;SDS011;20784;51.332;12.410;2023-05-07T02:37:32;19.83;;;16.40;;
34541;SDS011;20784;51.332;12.410;2023-05-07T02:39:58;20.90;;;16.48;;
34541;SDS011;20784;51.332;12.410;2023-05-07T02:42:24;22.67;;;16.73;;
34541;SDS011;20784;51.332;12.410;2023-05-07T02:44:50;22.35;;;17.10;;
34541;SDS011;20784;51.332;12.410;2023-05-07T02:47:16;26.77;;;17.48;;
34541;SDS011;20784;51.332;12.410;2023-05-07T02:49:42;21.33;;;16.95;;
34541;SDS011;20784;51.332;12.410;2023-05-07T02:52:07;21.90;;;16.08;;
34541;SDS011;20784;51.332;12.410;2023-05-07T02:54:33;21.13;;;16.63;;
34541;SDS011;20784;51.332;12.410;2023-05-07T02:56:58;19.23;;;15.75;;
34541;SDS011;20784;51.332;12.410;2023-05-07T02:59:25;20.27;;;15.90;;
34541;SDS011;20784;51.332;12.410;2023-05-07T03:01:51;19.00;;;15.23;;
34541;SDS011;20784;51.332;12.410;2023-05-07T03:04:17;19.83;;;16.08;;
34541;SDS011;20784;51.332;12.410;2023-05-07T03:06:42;21.00;;;16.23;;
34541;SDS011;20784;51.332;12.410;2023-05-07T03:09:07;20.00;;;16.15;;
34541;SDS011;20784;51.332;12.410;2023-05-07T03:11:33;18.33;;;15.75;;
34541;SDS011;20784;51.332;12.410;2023-05-07T03:14:00;20.98;;;16.00;;
34541;SDS011;20784;51.332;12.410;2023-05-07T03:16:29;19.83;;;15.57;;
34541;SDS011;20784;51.332;12.410;2023-05-07T03:18:55;19.90;;;15.35;;
34541;SDS011;20784;51.332;12.410;2023-05-07T03:21:20;19.92;;;15.98;;
34541;SDS011;20784;51.332;12.410;2023-05-07T03:23:46;17.48;;;14.57;;
34541;SDS011;20784;51.332;12.410;2023-05-07T03:26:14;21.20;;;15.43;;
34541;SDS011;20784;51.332;12.410;2023-05-07T03:28:39;20.23;;;15.45;;
34541;SDS011;20784;51.332;12.410;2023-05-07T03:31:05;19.05;;;15.43;;
34541;SDS011;20784;51.332;12.410;2023-05-07T03:33:32;19.55;;;15.82;;
34541;SDS011;20784;51.332;12.410;2023-05-07T03:36:01;19.23;;;15.73;;
34541;SDS011;20784;51.332;12.410;2023-05-07T03:38:27;21.38;;;15.35;;
34541;SDS011;20784;51.332;12.410;2023-05-07T03:40:52;19.92;;;16.05;;
34541;SDS011;20784;51.332;12.410;2023-05-07T03:43:18;21.38;;;15.73;;
34541;SDS011;20784;51.332;12.410;2023-05-07T03:45:44;20.52;;;15.55;;
34541;SDS011;20784;51.332;12.410;2023-05-07T03:48:09;20.45;;;15.50;;
34541;SDS011;20784;51.332;12.410;2023-05-07T03:50:37;19.15;;;15.52;;
34541;SDS011;20784;51.332;12.410;2023-05-07T03:53:03;22.80;;;16.80;;
34541;SDS011;20784;51.332;12.410;2023-05-07T03:55:29;19.23;;;14.70;;
34541;SDS011;20784;51.332;12.410;2023-05-07T03:57:54;20.58;;;15.93;;
34541;SDS011;20784;51.332;12.410;2023-05-07T04:00:21;18.45;;;15.07;;
34541;SDS011;20784;51.332;12.410;2023-05-07T04:02:47;20.40;;;15.70;;
34541;SDS011;20784;51.332;12.410;2023-05-07T04:05:12;20.92;;;15.95;;
34541;SDS011;20784;51.332;12.410;2023-05-07T04:07:40;19.52;;;15.35;;
34541;SDS011;20784;51.332;12.410;2023-05-07T04:10:05;20.75;;;15.70;;
34541;SDS011;20784;51.332;12.410;2023-05-07T04:12:31;20.98;;;14.98;;
34541;SDS011;20784;51.332;12.410;2023-05-07T04:14:57;20.80;;;15.48;;
34541;SDS011;20784;51.332;12.410;2023-05-07T04:17:22;19.35;;;15.20;;
34541;SDS011;20784;51.332;12.410;2023-05-07T04:19:48;19.52;;;15.60;;
34541;SDS011;20784;51.332;12.410;2023-05-07T04:22:13;20.00;;;15.60;;
34541;SDS011;20784;51.332;12.410;2023-05-07T04:24:39;19.90;;;15.30;;
34541;SDS011;20784;51.332;12.410;2023-05-07T04:27:05;20.98;;;14.93;;
34541;SDS011;20784;51.332;12.410;2023-05-07T04:29:31;19.08;;;14.75;;
34541;SDS011;20784;51.332;12.410;2023-05-07T04:31:56;21.90;;;15.93;;
34541;SDS011;20784;51.332;12.410;2023-05-07T04:34:23;20.23;;;15.43;;
34541;SDS011;20784;51.332;12.410;2023-05-07T04:36:49;20.75;;;15.65;;
34541;SDS011;20784;51.332;12.410;2023-05-07T04:39:15;18.05;;;14.45;;
34541;SDS011;20784;51.332;12.410;2023-05-07T04:41:41;19.17;;;14.30;;
34541;SDS011;20784;51.332;12.410;2023-05-07T04:44:06;18.20;;;13.82;;
34541;SDS011;20784;51.332;12.410;2023-05-07T04:46:32;20.95;;;15.30;;
34541;SDS011;20784;51.332;12.410;2023-05-07T04:48:57;20.58;;;14.80;;
34541;SDS011;20784;51.332;12.410;2023-05-07T04:51:23;19.25;;;14.15;;
34541;SDS011;20784;51.332;12.410;2023-05-07T04:53:57;20.95;;;14.93;;
34541;SDS011;20784;51.332;12.410;2023-05-07T04:56:23;19.42;;;14.52;;
34541;SDS011;20784;51.332;12.410;2023-05-07T04:58:49;19.77;;;14.32;;
34541;SDS011;20784;51.332;12.410;2023-05-07T05:01:14;19.33;;;14.30;;
34541;SDS011;20784;51.332;12.410;2023-05-07T05:03:40;21.70;;;14.20;;
34541;SDS011;20784;51.332;12.410;2023-05-07T05:06:06;19.92;;;13.52;;
34541;SDS011;20784;51.332;12.410;2023-05-07T05:08:31;18.77;;;13.30;;
34541;SDS011;20784;51.332;12.410;2023-05-07T05:11:00;17.30;;;12.65;;
34541;SDS011;20784;51.332;12.410;2023-05-07T05:13:27;15.63;;;11.63;;
34541;SDS011;20784;51.332;12.410;2023-05-07T05:15:53;16.35;;;12.43;;
34541;SDS011;20784;51.332;12.410;2023-05-07T05:18:18;14.95;;;12.05;;
34541;SDS011;20784;51.332;12.410;2023-05-07T05:20:46;14.40;;;11.35;;
34541;SDS011;20784;51.332;12.410;2023-05-07T05:23:18;16.67;;;10.82;;
34541;SDS011;20784;51.332;12.410;2023-05-07T05:25:45;14.18;;;10.80;;
34541;SDS011;20784;51.332;12.410;2023-05-07T05:28:10;16.55;;;11.55;;
34541;SDS011;20784;51.332;12.410;2023-05-07T05:30:36;15.00;;;11.35;;
34541;SDS011;20784;51.332;12.410;2023-05-07T05:33:12;14.48;;;10.40;;
34541;SDS011;20784;51.332;12.410;2023-05-07T05:35:37;15.38;;;10.48;;
34541;SDS011;20784;51.332;12.410;2023-05-07T05:38:22;11.45;;;9.85;;
34541;SDS011;20784;51.332;12.410;2023-05-07T05:40:50;14.43;;;9.52;;
34541;SDS011;20784;51.332;12.410;2023-05-07T05:43:15;12.30;;;9.50;;
34541;SDS011;20784;51.332;12.410;2023-05-07T05:45:41;12.73;;;10.63;;
34541;SDS011;20784;51.332;12.410;2023-05-07T05:48:09;13.10;;;9.57;;
34541;SDS011;20784;51.332;12.410;2023-05-07T05:50:35;14.75;;;9.85;;
34541;SDS011;20784;51.332;12.410;2023-05-07T05:53:01;14.20;;;10.05;;
34541;SDS011;20784;51.332;12.410;2023-05-07T05:55:27;12.25;;;9.82;;
34541;SDS011;20784;51.332;12.410;2023-05-07T05:57:53;12.57;;;10.15;;
34541;SDS011;20784;51.332;12.410;2023-05-07T06:00:18;15.38;;;10.48;;
34541;SDS011;20784;51.332;12.410;2023-05-07T06:02:47;15.40;;;11.00;;
34541;SDS011;20784;51.332;12.410;2023-05-07T06:05:13;17.35;;;10.95;;
34541;SDS011;20784;51.332;12.410;2023-05-07T06:07:38;15.73;;;11.20;;
34541;SDS011;20784;51.332;12.410;2023-05-07T06:10:07;16.08;;;11.52;;
34541;SDS011;20784;51.332;12.410;2023-05-07T06:12:32;14.82;;;11.15;;
34541;SDS011;20784;51.332;12.410;2023-05-07T06:14:58;16.65;;;12.02;;
34541;SDS011;20784;51.332;12.410;2023-05-07T06:17:24;15.52;;;11.30;;
34541;SDS011;20784;51.332;12.410;2023-05-07T06:19:49;15.73;;;11.73;;
34541;SDS011;20784;51.332;12.410;2023-05-07T06:22:15;18.20;;;11.45;;
34541;SDS011;20784;51.332;12.410;2023-05-07T06:24:41;17.48;;;11.95;;
34541;SDS011;20784;51.332;12.410;2023-05-07T06:27:07;18.02;;;12.02;;
34541;SDS011;20784;51.332;12.410;2023-05-07T06:29:32;18.92;;;11.82;;
34541;SDS011;20784;51.332;12.410;2023-05-07T06:32:11;16.45;;;11.45;;
34541;SDS011;20784;51.332;12.410;2023-05-07T06:34:37;15.82;;;12.52;;
34541;SDS011;20784;51.332;12.410;2023-05-07T06:37:04;15.98;;;11.73;;
34541;SDS011;20784;51.332;12.410;2023-05-07T06:39:30;16.27;;;11.82;;
34541;SDS011;20784;51.332;12.410;2023-05-07T06:41:59;15.77;;;11.40;;
34541;SDS011;20784;51.332;12.410;2023-05-07T06:44:25;14.75;;;11.20;;
34541;SDS011;20784;51.332;12.410;2023-05-07T06:46:50;16.95;;;10.90;;
34541;SDS011;20784;51.332;12.410;2023-05-07T06:49:16;14.15;;;11.35;;
34541;SDS011;20784;51.332;12.410;2023-05-07T06:51:45;13.52;;;11.07;;
34541;SDS011;20784;51.332;12.410;2023-05-07T06:54:10;16.50;;;11.27;;
34541;SDS011;20784;51.332;12.410;2023-05-07T06:56:36;13.07;;;10.77;;
34541;SDS011;20784;51.332;12.410;2023-05-07T06:59:06;15.50;;;10.75;;
34541;SDS011;20784;51.332;12.410;2023-05-07T07:01:32;17.80;;;11.18;;
34541;SDS011;20784;51.332;12.410;2023-05-07T07:04:00;15.02;;;10.85;;
34541;SDS011;20784;51.332;12.410;2023-05-07T07:06:26;14.95;;;10.45;;
34541;SDS011;20784;51.332;12.410;2023-05-07T07:08:52;13.70;;;10.05;;
34541;SDS011;20784;51.332;12.410;2023-05-07T07:11:20;12.73;;;9.30;;
34541;SDS011;20784;51.332;12.410;2023-05-07T07:13:49;13.02;;;10.13;;
34541;SDS011;20784;51.332;12.410;2023-05-07T07:16:15;14.95;;;10.48;;
34541;SDS011;20784;51.332;12.410;2023-05-07T07:18:41;11.15;;;9.07;;
34541;SDS011;20784;51.332;12.410;2023-05-07T07:21:07;12.10;;;9.52;;
34541;SDS011;20784;51.332;12.410;2023-05-07T07:23:32;15.80;;;8.20;;
34541;SDS011;20784;51.332;12.410;2023-05-07T07:26:01;10.75;;;8.70;;
34541;SDS011;20784;51.332;12.410;2023-05-07T07:28:27;9.27;;;8.25;;
34541;SDS011;20784;51.332;12.410;2023-05-07T07:30:52;10.25;;;8.02;;
34541;SDS011;20784;51.332;12.410;2023-05-07T07:33:18;11.77;;;8.50;;
34541;SDS011;20784;51.332;12.410;2023-05-07T07:35:48;9.32;;;8.13;;
34541;SDS011;20784;51.332;12.410;2023-05-07T07:38:16;9.27;;;7.82;;
34541;SDS011;20784;51.332;12.410;2023-05-07T07:40:41;10.85;;;8.00;;
34541;SDS011;20784;51.332;12.410;2023-05-07T07:43:08;8.82;;;7.45;;
34541;SDS011;20784;51.332;12.410;2023-05-07T07:45:36;10.27;;;7.60;;
34541;SDS011;20784;51.332;12.410;2023-05-07T07:48:04;10.45;;;7.65;;
34541;SDS011;20784;51.332;12.410;2023-05-07T07:50:30;8.05;;;7.10;;
34541;SDS011;20784;51.332;12.410;2023-05-07T07:52:56;7.47;;;6.55;;
34541;SDS011;20784;51.332;12.410;2023-05-07T07:55:22;8.30;;;7.40;;
34541;SDS011;20784;51.332;12.410;2023-05-07T07:57:48;7.90;;;6.70;;
34541;SDS011;20784;51.332;12.410;2023-05-07T08:00:15;8.50;;;6.35;;
34541;SDS011;20784;51.332;12.410;2023-05-07T08:02:41;8.15;;;7.00;;
34541;SDS011;20784;51.332;12.410;2023-05-07T08:05:07;7.32;;;6.47;;
34541;SDS011;20784;51.332;12.410;2023-05-07T08:07:32;9.55;;;6.78;;
34541;SDS011;20784;51.332;12.410;2023-05-07T08:09:58;7.68;;;6.38;;
34541;SDS011;20784;51.332;12.410;2023-05-07T08:12:23;8.70;;;6.50;;
34541;SDS011;20784;51.332;12.410;2023-05-07T08:14:49;10.27;;;6.22;;
34541;SDS011;20784;51.332;12.410;2023-05-07T08:17:15;7.68;;;6.10;;
34541;SDS011;20784;51.332;12.410;2023-05-07T08:19:41;9.82;;;6.63;;
34541;SDS011;20784;51.332;12.410;2023-05-07T08:22:08;7.22;;;5.93;;
34541;SDS011;20784;51.332;12.410;2023-05-07T08:24:34;6.57;;;5.30;;
34541;SDS011;20784;51.332;12.410;2023-05-07T08:27:00;6.88;;;5.85;;
34541;SDS011;20784;51.332;12.410;2023-05-07T08:29:26;7.28;;;5.60;;
34541;SDS011;20784;51.332;12.410;2023-05-07T08:31:51;7.22;;;5.22;;
34541;SDS011;20784;51.332;12.410;2023-05-07T08:34:20;7.70;;;5.65;;
34541;SDS011;20784;51.332;12.410;2023-05-07T08:36:46;7.85;;;5.70;;
34541;SDS011;20784;51.332;12.410;2023-05-07T08:39:15;6.78;;;5.43;;
34541;SDS011;20784;51.332;12.410;2023-05-07T08:41:44;8.18;;;5.78;;
34541;SDS011;20784;51.332;12.410;2023-05-07T08:44:15;7.55;;;5.30;;
34541;SDS011;20784;51.332;12.410;2023-05-07T08:46:45;7.50;;;6.10;;
34541;SDS011;20784;51.332;12.410;2023-05-07T08:49:13;7.97;;;5.95;;
34541;SDS011;20784;51.332;12.410;2023-05-07T08:51:44;7.72;;;6.20;;
34541;SDS011;20784;51.332;12.410;2023-05-07T08:54:10;7.30;;;5.78;;
34541;SDS011;20784;51.332;12.410;2023-05-07T08:56:37;6.68;;;5.72;;
34541;SDS011;20784;51.332;12.410;2023-05-07T08:59:04;8.23;;;6.28;;
34541;SDS011;20784;51.332;12.410;2023-05-07T09:01:30;6.82;;;5.85;;
34541;SDS011;20784;51.332;12.410;2023-05-07T09:03:57;8.20;;;5.88;;
34541;SDS011;20784;51.332;12.410;2023-05-07T09:06:22;7.55;;;6.20;;
34541;SDS011;20784;51.332;12.410;2023-05-07T09:08:49;7.20;;;6.13;;
34541;SDS011;20784;51.332;12.410;2023-05-07T09:11:15;7.68;;;5.65;;
34541;SDS011;20784;51.332;12.410;2023-05-07T09:13:43;8.50;;;5.78;;
34541;SDS011;20784;51.332;12.410;2023-05-07T09:16:10;7.03;;;5.57;;
34541;SDS011;20784;51.332;12.410;2023-05-07T09:18:46;6.18;;;5.38;;
34541;SDS011;20784;51.332;12.410;2023-05-07T09:21:16;11.52;;;5.75;;
34541;SDS011;20784;51.332;12.410;2023-05-07T09:23:47;6.85;;;5.85;;
34541;SDS011;20784;51.332;12.410;2023-05-07T09:26:17;7.07;;;6.38;;
34541;SDS011;20784;51.332;12.410;2023-05-07T09:28:43;8.23;;;6.57;;
34541;SDS011;20784;51.332;12.410;2023-05-07T09:31:12;6.95;;;6.20;;
34541;SDS011;20784;51.332;12.410;2023-05-07T09:33:38;8.45;;;6.50;;
34541;SDS011;20784;51.332;12.410;2023-05-07T09:36:05;8.35;;;7.00;;
34541;SDS011;20784;51.332;12.410;2023-05-07T09:38:32;6.38;;;5.55;;
34541;SDS011;20784;51.332;12.410;2023-05-07T09:41:02;7.55;;;5.72;;
34541;SDS011;20784;51.332;12.410;2023-05-07T09:43:33;8.90;;;5.82;;
34541;SDS011;20784;51.332;12.410;2023-05-07T09:46:11;12.27;;;6.32;;
34541;SDS011;20784;51.332;12.410;2023-05-07T09:48:38;7.05;;;6.18;;
34541;SDS011;20784;51.332;12.410;2023-05-07T09:51:07;8.38;;;6.63;;
34541;SDS011;20784;51.332;12.410;2023-05-07T09:53:43;8.30;;;6.07;;
34541;SDS011;20784;51.332;12.410;2023-05-07T09:56:11;7.28;;;6.57;;
34541;SDS011;20784;51.332;12.410;2023-05-07T09:58:38;7.65;;;5.97;;
34541;SDS011;20784;51.332;12.410;2023-05-07T10:01:13;6.63;;;5.82;;
34541;SDS011;20784;51.332;12.410;2023-05-07T10:03:41;7.03;;;6.28;;
34541;SDS011;20784;51.332;12.410;2023-05-07T10:06:08;6.20;;;5.28;;
34541;SDS011;20784;51.332;12.410;2023-05-07T10:08:35;7.30;;;5.53;;
34541;SDS011;20784;51.332;12.410;2023-05-07T10:11:03;10.10;;;5.95;;
34541;SDS011;20784;51.332;12.410;2023-05-07T10:13:30;8.85;;;5.53;;
34541;SDS011;20784;51.332;12.410;2023-05-07T10:15:58;6.18;;;5.03;;
34541;SDS011;20784;51.332;12.410;2023-05-07T10:18:24;7.25;;;5.55;;
34541;SDS011;20784;51.332;12.410;2023-05-07T10:20:54;6.53;;;5.05;;
34541;SDS011;20784;51.332;12.410;2023-05-07T10:23:29;7.43;;;5.28;;
34541;SDS011;20784;51.332;12.410;2023-05-07T10:26:03;6.10;;;4.97;;
34541;SDS011;20784;51.332;12.410;2023-05-07T10:28:38;7.45;;;5.05;;
34541;SDS011;20784;51.332;12.410;2023-05-07T10:31:15;5.78;;;5.15;;
34541;SDS011;20784;51.332;12.410;2023-05-07T10:33:56;6.82;;;4.93;;
34541;SDS011;20784;51.332;12.410;2023-05-07T10:36:23;6.13;;;5.25;;
34541;SDS011;20784;51.332;12.410;2023-05-07T10:38:51;5.50;;;4.55;;
34541;SDS011;20784;51.332;12.410;2023-05-07T10:41:17;5.13;;;4.30;;
34541;SDS011;20784;51.332;12.410;2023-05-07T10:43:44;5.18;;;4.20;;
34541;SDS011;20784;51.332;12.410;2023-05-07T10:51:28;5.50;;;4.63;;
34541;SDS011;20784;51.332;12.410;2023-05-07T10:56:38;6.97;;;6.22;;
34541;SDS011;20784;51.332;12.410;2023-05-07T11:01:55;10.17;;;7.23;;
34541;SDS011;20784;51.332;12.410;2023-05-07T11:04:34;7.88;;;6.50;;
34541;SDS011;20784;51.332;12.410;2023-05-07T11:10:06;10.82;;;7.30;;
34541;SDS011;20784;51.332;12.410;2023-05-07T11:15:07;7.22;;;6.13;;
34541;SDS011;20784;51.332;12.410;2023-05-07T11:17:58;8.75;;;6.05;;
34541;SDS011;20784;51.332;12.410;2023-05-07T11:26:26;6.78;;;5.60;;
34541;SDS011;20784;51.332;12.410;2023-05-07T11:28:53;7.73;;;5.63;;
34541;SDS011;20784;51.332;12.410;2023-05-07T11:31:25;8.43;;;5.88;;
34541;SDS011;20784;51.332;12.410;2023-05-07T11:33:59;6.32;;;5.50;;
34541;SDS011;20784;51.332;12.410;2023-05-07T11:36:25;8.85;;;5.78;;
34541;SDS011;20784;51.332;12.410;2023-05-07T11:38:55;7.35;;;5.65;;
34541;SDS011;20784;51.332;12.410;2023-05-07T11:41:42;10.55;;;5.30;;
34541;SDS011;20784;51.332;12.410;2023-05-07T11:44:10;7.10;;;5.50;;
34541;SDS011;20784;51.332;12.410;2023-05-07T11:46:36;7.35;;;5.60;;
34541;SDS011;20784;51.332;12.410;2023-05-07T11:49:01;8.55;;;5.60;;
34541;SDS011;20784;51.332;12.410;2023-05-07T11:51:27;8.82;;;6.18;;
34541;SDS011;20784;51.332;12.410;2023-05-07T11:53:53;9.35;;;5.97;;
34541;SDS011;20784;51.332;12.410;2023-05-07T11:56:19;7.30;;;6.20;;
34541;SDS011;20784;51.332;12.410;2023-05-07T11:58:45;7.07;;;6.13;;
34541;SDS011;20784;51.332;12.410;2023-05-07T12:01:12;7.15;;;6.05;;
34541;SDS011;20784;51.332;12.410;2023-05-07T12:03:42;8.30;;;6.63;;
34541;SDS011;20784;51.332;12.410;2023-05-07T12:06:11;7.45;;;6.13;;
34541;SDS011;20784;51.332;12.410;2023-05-07T12:08:41;7.38;;;6.00;;
34541;SDS011;20784;51.332;12.410;2023-05-07T12:11:21;8.85;;;6.45;;
34541;SDS011;20784;51.332;12.410;2023-05-07T12:13:48;7.13;;;6.05;;
34541;SDS011;20784;51.332;12.410;2023-05-07T12:16:14;13.60;;;6.78;;
34541;SDS011;20784;51.332;12.410;2023-05-07T12:18:39;7.80;;;6.45;;
34541;SDS011;20784;51.332;12.410;2023-05-07T12:21:08;7.88;;;6.15;;
34541;SDS011;20784;51.332;12.410;2023-05-07T12:23:37;10.38;;;5.93;;
34541;SDS011;20784;51.332;12.410;2023-05-07T12:26:03;6.40;;;5.60;;
34541;SDS011;20784;51.332;12.410;2023-05-07T12:28:29;6.72;;;5.35;;
34541;SDS011;20784;51.332;12.410;2023-05-07T12:31:02;6.13;;;5.13;;
34541;SDS011;20784;51.332;12.410;2023-05-07T12:33:28;6.38;;;5.45;;
34541;SDS011;20784;51.332;12.410;2023-05-07T12:36:11;8.27;;;6.20;;
34541;SDS011;20784;51.332;12.410;2023-05-07T12:38:38;8.10;;;6.22;;
34541;SDS011;20784;51.332;12.410;2023-05-07T12:41:07;11.07;;;6.07;;
34541;SDS011;20784;51.332;12.410;2023-05-07T12:43:34;7.28;;;6.07;;
34541;SDS011;20784;51.332;12.410;2023-05-07T12:46:03;11.93;;;6.25;;
34541;SDS011;20784;51.332;12.410;2023-05-07T12:48:35;8.02;;;5.88;;
34541;SDS011;20784;51.332;12.410;2023-05-07T12:51:01;6.50;;;4.88;;
34541;SDS011;20784;51.332;12.410;2023-05-07T12:53:39;6.85;;;4.85;;
34541;SDS011;20784;51.332;12.410;2023-05-07T12:56:07;7.25;;;4.80;;
34541;SDS011;20784;51.332;12.410;2023-05-07T12:58:36;6.57;;;5.60;;
34541;SDS011;20784;51.332;12.410;2023-05-07T13:01:05;6.22;;;5.07;;
34541;SDS011;20784;51.332;12.410;2023-05-07T13:03:33;11.68;;;5.75;;
34541;SDS011;20784;51.332;12.410;2023-05-07T13:06:09;7.05;;;5.22;;
34541;SDS011;20784;51.332;12.410;2023-05-07T13:08:44;6.70;;;5.13;;
34541;SDS011;20784;51.332;12.410;2023-05-07T13:11:10;7.50;;;4.80;;
34541;SDS011;20784;51.332;12.410;2023-05-07T13:13:40;5.30;;;4.53;;
34541;SDS011;20784;51.332;12.410;2023-05-07T13:16:07;5.53;;;4.72;;
34541;SDS011;20784;51.332;12.410;2023-05-07T13:18:37;7.30;;;4.93;;
34541;SDS011;20784;51.332;12.410;2023-05-07T13:21:03;5.47;;;4.72;;
34541;SDS011;20784;51.332;12.410;2023-05-07T13:23:29;8.98;;;5.07;;
34541;SDS011;20784;51.332;12.410;2023-05-07T13:25:55;6.75;;;4.97;;
34541;SDS011;20784;51.332;12.410;2023-05-07T13:28:24;5.53;;;4.68;;
34541;SDS011;20784;51.332;12.410;2023-05-07T13:30:51;6.88;;;4.65;;
34541;SDS011;20784;51.332;12.410;2023-05-07T13:33:20;6.05;;;4.60;;
34541;SDS011;20784;51.332;12.410;2023-05-07T13:35:45;7.50;;;4.13;;
34541;SDS011;20784;51.332;12.410;2023-05-07T13:38:11;4.75;;;4.28;;
34541;SDS011;20784;51.332;12.410;2023-05-07T13:40:37;6.38;;;4.13;;
34541;SDS011;20784;51.332;12.410;2023-05-07T13:45:42;4.85;;;3.78;;
34541;SDS011;20784;51.332;12.410;2023-05-07T13:48:11;5.40;;;4.15;;
34541;SDS011;20784;51.332;12.410;2023-05-07T13:50:36;6.68;;;4.18;;
34541;SDS011;20784;51.332;12.410;2023-05-07T13:53:02;5.07;;;3.55;;
34541;SDS011;20784;51.332;12.410;2023-05-07T13:55:30;7.97;;;3.97;;
34541;SDS011;20784;51.332;12.410;2023-05-07T13:57:57;5.45;;;4.07;;
34541;SDS011;20784;51.332;12.410;2023-05-07T14:00:24;5.13;;;3.80;;
34541;SDS011;20784;51.332;12.410;2023-05-07T14:02:51;5.70;;;3.90;;
34541;SDS011;20784;51.332;12.410;2023-05-07T14:05:17;7.13;;;3.50;;
34541;SDS011;20784;51.332;12.410;2023-05-07T14:07:42;4.35;;;3.72;;
34541;SDS011;20784;51.332;12.410;2023-05-07T14:10:12;4.88;;;3.40;;
34541;SDS011;20784;51.332;12.410;2023-05-07T14:12:47;5.97;;;3.03;;
34541;SDS011;20784;51.332;12.410;2023-05-07T14:15:13;5.70;;;3.88;;
34541;SDS011;20784;51.332;12.410;2023-05-07T14:17:39;4.57;;;3.70;;
34541;SDS011;20784;51.332;12.410;2023-05-07T14:20:04;3.67;;;3.15;;
34541;SDS011;20784;51.332;12.410;2023-05-07T14:22:31;4.80;;;3.28;;
34541;SDS011;20784;51.332;12.410;2023-05-07T14:25:10;6.20;;;3.00;;
34541;SDS011;20784;51.332;12.410;2023-05-07T14:27:44;4.60;;;3.00;;
34541;SDS011;20784;51.332;12.410;2023-05-07T14:30:09;5.32;;;3.50;;
34541;SDS011;20784;51.332;12.410;2023-05-07T14:32:35;4.97;;;3.10;;
34541;SDS011;20784;51.332;12.410;2023-05-07T14:35:01;3.83;;;3.05;;
34541;SDS011;20784;51.332;12.410;2023-05-07T14:37:27;7.22;;;2.70;;
34541;SDS011;20784;51.332;12.410;2023-05-07T14:39:53;12.13;;;2.75;;
34541;SDS011;20784;51.332;12.410;2023-05-07T14:42:21;3.75;;;2.72;;
34541;SDS011;20784;51.332;12.410;2023-05-07T14:44:47;2.88;;;2.58;;
34541;SDS011;20784;51.332;12.410;2023-05-07T14:47:18;3.22;;;2.50;;
34541;SDS011;20784;51.332;12.410;2023-05-07T14:49:46;4.93;;;2.50;;